Time,TemperatureF,DewpointF,PressureIn,WindDirection,WindDirectionDegrees,WindSpeedMPH,WindSpeedGustMPH,Humidity,HourlyPrecipIn,Conditions,Clouds,dailyrainin,SoftwareType,DateUTC
2013-05-15 00:03:00,46.0,22.0,-100.00,SW,235,2.0,6.0,39,-99.99,,,-99.99,,2013-05-15 04:03:00,
2013-05-15 00:12:00,45.0,23.0,-100.00,NNE,30,0.0,3.0,41,-99.99,,,-99.99,,2013-05-15 04:12:00,
2013-05-15 00:24:00,45.0,23.0,-100.00,NNE,30,0.0,3.0,41,-99.99,,,-99.99,,2013-05-15 04:24:00,
2013-05-15 00:33:00,45.0,23.0,-100.00,South,175,0.0,4.0,42,-99.99,,,-99.99,,2013-05-15 04:33:00,
2013-05-15 00:43:00,44.0,23.0,-100.00,West,265,0.0,2.0,43,-99.99,,,-99.99,,2013-05-15 04:43:00,
2013-05-15 00:52:00,44.0,23.0,-100.00,West,265,0.0,2.0,43,-99.99,,,-99.99,,2013-05-15 04:52:00,
2013-05-15 01:02:00,43.0,23.0,-100.00,WNW,285,0.0,0.0,45,-99.99,,,-99.99,,2013-05-15 05:02:00,
2013-05-15 01:12:00,44.0,24.0,-100.00,SW,235,2.0,4.0,45,-99.99,,,-99.99,,2013-05-15 05:12:00,
2013-05-15 01:22:00,44.0,24.0,-100.00,SW,235,2.0,4.0,45,-99.99,,,-99.99,,2013-05-15 05:22:00,
2013-05-15 01:32:00,44.0,24.0,-100.00,SW,225,1.0,3.0,45,-99.99,,,-99.99,,2013-05-15 05:32:00,
2013-05-15 01:42:00,44.0,24.0,-100.00,WNW,290,0.0,0.0,45,-99.99,,,-99.99,,2013-05-15 05:42:00,
2013-05-15 01:52:00,44.0,24.0,-100.00,WNW,290,0.0,0.0,45,-99.99,,,-99.99,,2013-05-15 05:52:00,
2013-05-15 02:02:00,44.0,24.0,-100.00,North,0,0.0,0.0,44,-99.99,,,-99.99,,2013-05-15 06:02:00,
2013-05-15 02:11:00,45.0,25.0,-100.00,South,185,0.0,2.0,45,-99.99,,,-99.99,,2013-05-15 06:11:00,
2013-05-15 02:22:00,45.0,25.0,-100.00,South,185,0.0,2.0,45,-99.99,,,-99.99,,2013-05-15 06:22:00,
2013-05-15 02:32:00,46.0,26.0,-100.00,WSW,245,0.0,3.0,45,-99.99,,,-99.99,,2013-05-15 06:32:00,
2013-05-15 02:42:00,47.0,25.0,-100.00,SW,235,1.0,3.0,42,-99.99,,,-99.99,,2013-05-15 06:42:00,
2013-05-15 02:52:00,47.0,25.0,-100.00,SW,235,1.0,3.0,42,-99.99,,,-99.99,,2013-05-15 06:52:00,
2013-05-15 03:01:00,48.0,25.0,-100.00,West,270,0.0,4.0,41,-99.99,,,-99.99,,2013-05-15 07:01:00,
2013-05-15 03:11:00,48.0,25.0,-100.00,SW,225,0.0,2.0,41,-99.99,,,-99.99,,2013-05-15 07:11:00,
2013-05-15 03:22:00,48.0,25.0,-100.00,SW,225,0.0,2.0,41,-99.99,,,-99.99,,2013-05-15 07:22:00,
2013-05-15 03:32:00,48.0,26.0,-100.00,SE,130,0.0,0.0,42,-99.99,,,-99.99,,2013-05-15 07:32:00,
2013-05-15 03:42:00,48.0,26.0,-100.00,SW,215,3.0,5.0,42,-99.99,,,-99.99,,2013-05-15 07:42:00,
2013-05-15 03:52:00,48.0,26.0,-100.00,SW,215,3.0,5.0,42,-99.99,,,-99.99,,2013-05-15 07:52:00,
2013-05-15 04:02:00,49.0,26.0,-100.00,WSW,245,1.0,3.0,41,-99.99,,,-99.99,,2013-05-15 08:02:00,
2013-05-15 04:12:00,49.0,26.0,-100.00,SSW,195,0.0,2.0,41,-99.99,,,-99.99,,2013-05-15 08:12:00,
2013-05-15 04:21:00,49.0,26.0,-100.00,SSW,195,0.0,2.0,41,-99.99,,,-99.99,,2013-05-15 08:21:00,
2013-05-15 04:32:00,49.0,27.0,-100.00,South,185,0.0,4.0,43,-99.99,,,-99.99,,2013-05-15 08:32:00,
2013-05-15 04:42:00,48.0,29.0,-100.00,SE,130,1.0,3.0,47,-99.99,,,-99.99,,2013-05-15 08:42:00,
2013-05-15 04:53:00,48.0,29.0,-100.00,SE,130,1.0,3.0,47,-99.99,,,-99.99,,2013-05-15 08:53:00,
2013-05-15 05:01:00,48.0,28.0,-100.00,SE,145,1.0,2.0,46,-99.99,,,-99.99,,2013-05-15 09:01:00,
2013-05-15 05:12:00,48.0,28.0,-100.00,SSE,160,0.0,4.0,46,-99.99,,,-99.99,,2013-05-15 09:12:00,
2013-05-15 05:22:00,48.0,28.0,-100.00,SSE,160,0.0,4.0,46,-99.99,,,-99.99,,2013-05-15 09:22:00,
2013-05-15 05:33:00,48.0,28.0,-100.00,SE,140,1.0,2.0,47,-99.99,,,-99.99,,2013-05-15 09:33:00,
2013-05-15 05:42:00,47.0,29.0,-100.00,SE,130,3.0,5.0,48,-99.99,,,-99.99,,2013-05-15 09:42:00,
2013-05-15 05:53:00,47.0,29.0,-100.00,SE,130,3.0,5.0,48,-99.99,,,-99.99,,2013-05-15 09:53:00,
2013-05-15 06:02:00,47.0,28.0,-100.00,South,170,1.0,6.0,47,-99.99,,,-99.99,,2013-05-15 10:02:00,
2013-05-15 06:13:00,48.0,28.0,-100.00,SE,130,1.0,4.0,47,-99.99,,,-99.99,,2013-05-15 10:13:00,
2013-05-15 06:23:00,48.0,28.0,-100.00,SE,130,1.0,4.0,47,-99.99,,,-99.99,,2013-05-15 10:23:00,
2013-05-15 06:32:00,48.0,28.0,-100.00,SSE,155,1.0,2.0,47,-99.99,,,-99.99,,2013-05-15 10:32:00,
2013-05-15 06:42:00,48.0,28.0,-100.00,SE,130,1.0,3.0,47,-99.99,,,-99.99,,2013-05-15 10:42:00,
2013-05-15 06:53:00,48.0,28.0,-100.00,SE,130,1.0,3.0,47,-99.99,,,-99.99,,2013-05-15 10:53:00,
2013-05-15 07:13:00,48.0,29.0,-100.00,NE,55,0.0,2.0,48,-99.99,,,-99.99,,2013-05-15 11:13:00,
2013-05-15 07:19:00,48.0,30.0,-100.00,ESE,120,1.0,5.0,49,-99.99,,,-99.99,,2013-05-15 11:19:00,
2013-05-15 07:29:00,51.0,32.0,-100.00,South,180,2.0,7.0,48,-99.99,,,-99.99,,2013-05-15 11:29:00,
2013-05-15 07:38:00,47.0,29.0,-100.00,SW,220,2.0,4.0,49,-99.99,,,-99.99,,2013-05-15 11:38:00,
2013-05-15 07:49:00,48.0,29.0,-100.00,SSE,150,1.0,6.0,48,-99.99,,,-99.99,,2013-05-15 11:49:00,
2013-05-15 07:57:00,48.0,29.0,-100.00,SSE,150,1.0,6.0,48,-99.99,,,-99.99,,2013-05-15 11:57:00,
2013-05-15 08:11:00,49.0,30.0,-100.00,ESE,110,1.0,7.0,49,-99.99,,,-99.99,,2013-05-15 12:11:00,
2013-05-15 08:16:00,51.0,32.0,-100.00,South,180,2.0,7.0,48,-99.99,,,-99.99,,2013-05-15 12:16:00,
2013-05-15 09:12:00,54.0,36.0,-100.00,SSE,165,3.0,9.0,52,-99.99,,,-99.99,,2013-05-15 13:12:00,
2013-05-15 09:19:00,54.0,37.0,-100.00,SSE,155,3.0,10.0,52,-99.99,,,-99.99,,2013-05-15 13:19:00,
2013-05-15 09:28:00,54.0,37.0,-100.00,SSE,155,3.0,10.0,52,-99.99,,,-99.99,,2013-05-15 13:28:00,
2013-05-15 09:37:00,55.0,37.0,-100.00,SE,145,3.0,9.0,51,-99.99,,,-99.99,,2013-05-15 13:37:00,
2013-05-15 09:48:00,56.0,37.0,-100.00,SE,145,4.0,11.0,50,-99.99,,,-99.99,,2013-05-15 13:48:00,
2013-05-15 09:57:00,56.0,37.0,-100.00,SE,145,4.0,11.0,50,-99.99,,,-99.99,,2013-05-15 13:57:00,
2013-05-15 10:08:00,56.0,37.0,-100.00,SSW,210,6.0,20.0,48,-99.99,,,-99.99,,2013-05-15 14:08:00,
2013-05-15 10:14:00,57.0,37.0,-100.00,SE,125,5.0,13.0,47,-99.99,,,-99.99,,2013-05-15 14:14:00,
2013-05-15 10:27:00,57.0,37.0,-100.00,SE,125,5.0,13.0,47,-99.99,,,-99.99,,2013-05-15 14:27:00,
2013-05-15 10:29:00,55.0,38.0,-100.00,SW,215,3.0,10.0,52,-99.99,,,-99.99,,2013-05-15 14:29:00,
2013-05-15 10:49:00,56.0,37.0,-100.00,ESE,120,5.0,12.0,49,-99.99,,,-99.99,,2013-05-15 14:49:00,
2013-05-15 11:16:00,55.0,38.0,-100.00,SW,215,3.0,10.0,52,-99.99,,,-99.99,,2013-05-15 15:16:00,
2013-05-15 11:39:00,56.0,39.0,-100.00,SSE,150,2.0,9.0,52,-99.99,,,-99.99,,2013-05-15 15:39:00,
2013-05-15 11:48:00,57.0,39.0,-100.00,South,190,4.0,10.0,51,-99.99,,,-99.99,,2013-05-15 15:48:00,
2013-05-15 11:57:00,57.0,39.0,-100.00,South,190,4.0,10.0,51,-99.99,,,-99.99,,2013-05-15 15:57:00,
2013-05-15 12:10:00,57.0,39.0,-100.00,SSW,195,3.0,10.0,52,-99.99,,,-99.99,,2013-05-15 16:10:00,
2013-05-15 12:24:00,56.0,41.0,-100.00,SE,135,3.0,11.0,56,-99.99,,,-99.99,,2013-05-15 16:24:00,
2013-05-15 12:38:00,58.0,42.0,-100.00,SE,145,4.0,11.0,55,-99.99,,,-99.99,,2013-05-15 16:38:00,
2013-05-15 12:54:00,58.0,42.0,-100.00,SE,130,8.0,13.0,55,-99.99,,,-99.99,,2013-05-15 16:54:00,
2013-05-15 13:13:00,60.0,43.0,-100.00,East,100,6.0,13.0,54,-99.99,,,-99.99,,2013-05-15 17:13:00,
2013-05-15 13:47:00,65.0,44.0,-100.00,SSE,160,5.0,15.0,46,-99.99,,,-99.99,,2013-05-15 17:47:00,
2013-05-15 14:17:00,63.0,44.0,-100.00,SW,225,7.0,13.0,49,-99.99,,,-99.99,,2013-05-15 18:17:00,
2013-05-15 14:28:00,63.0,44.0,-100.00,SW,225,7.0,13.0,49,-99.99,,,-99.99,,2013-05-15 18:28:00,
2013-05-15 14:38:00,62.0,44.0,-100.00,SSW,195,9.0,15.0,51,-99.99,,,-99.99,,2013-05-15 18:38:00,
2013-05-15 14:47:00,62.0,45.0,-100.00,West,260,4.0,12.0,53,-99.99,,,-99.99,,2013-05-15 18:47:00,
2013-05-15 15:16:00,63.0,47.0,-100.00,WSW,240,5.0,10.0,54,-99.99,,,-99.99,,2013-05-15 19:16:00,
2013-05-15 15:29:00,68.0,48.0,-100.00,SSW,200,6.0,13.0,48,-99.99,,,-99.99,,2013-05-15 19:29:00,
2013-05-15 15:50:00,64.0,46.0,-100.00,South,175,4.0,13.0,52,-99.99,,,-99.99,,2013-05-15 19:50:00,
2013-05-15 15:59:00,64.0,46.0,-100.00,South,175,4.0,13.0,52,-99.99,,,-99.99,,2013-05-15 19:59:00,
2013-05-15 16:20:00,68.0,48.0,-100.00,SSW,200,6.0,13.0,48,-99.99,,,-99.99,,2013-05-15 20:20:00,
2013-05-15 16:47:00,69.0,49.0,-100.00,SSW,210,6.0,15.0,48,-99.99,,,-99.99,,2013-05-15 20:47:00,
2013-05-15 16:53:00,69.0,49.0,-100.00,SSW,210,6.0,15.0,48,-99.99,,,-99.99,,2013-05-15 20:53:00,
2013-05-15 17:09:00,69.0,48.0,-100.00,SW,235,10.0,18.0,48,-99.99,,,-99.99,,2013-05-15 21:09:00,
2013-05-15 17:21:00,69.0,49.0,-100.00,WSW,245,5.0,20.0,49,-99.99,,,-99.99,,2013-05-15 21:21:00,
2013-05-15 17:28:00,69.0,49.0,-100.00,WSW,245,5.0,20.0,49,-99.99,,,-99.99,,2013-05-15 21:28:00,
2013-05-15 17:41:00,70.0,49.0,-100.00,SSW,210,9.0,17.0,48,-99.99,,,-99.99,,2013-05-15 21:41:00,
2013-05-15 17:51:00,70.0,49.0,-100.00,WSW,245,5.0,16.0,48,-99.99,,,-99.99,,2013-05-15 21:51:00,
2013-05-15 17:56:00,70.0,49.0,-100.00,WSW,245,5.0,16.0,48,-99.99,,,-99.99,,2013-05-15 21:56:00,
2013-05-15 18:12:00,71.0,50.0,-100.00,SSW,200,7.0,16.0,47,-99.99,,,-99.99,,2013-05-15 22:12:00,
2013-05-15 18:19:00,71.0,50.0,-100.00,West,280,6.0,14.0,47,-99.99,,,-99.99,,2013-05-15 22:19:00,
2013-05-15 18:29:00,71.0,50.0,-100.00,West,260,5.0,12.0,49,-99.99,,,-99.99,,2013-05-15 22:29:00,
2013-05-15 18:30:00,71.0,50.0,-100.00,West,280,6.0,14.0,47,-99.99,,,-99.99,,2013-05-15 22:30:00,
2013-05-15 18:40:00,71.0,50.0,-100.00,WSW,245,6.0,13.0,47,-99.99,,,-99.99,,2013-05-15 22:40:00,
2013-05-15 19:17:00,71.0,50.0,-100.00,West,260,5.0,12.0,49,-99.99,,,-99.99,,2013-05-15 23:17:00,
2013-05-15 19:39:00,71.0,50.0,-100.00,SSW,200,7.0,15.0,49,-99.99,,,-99.99,,2013-05-15 23:39:00,
2013-05-15 19:50:00,70.0,51.0,-100.00,West,275,5.0,14.0,50,-99.99,,,-99.99,,2013-05-15 23:50:00,
2013-05-15 19:56:00,70.0,51.0,-100.00,West,275,5.0,14.0,50,-99.99,,,-99.99,,2013-05-15 23:56:00,
2013-05-15 20:09:00,70.0,51.0,-100.00,SW,215,5.0,12.0,51,-99.99,,,-99.99,,2013-05-16 00:09:00,
2013-05-15 20:19:00,69.0,51.0,-100.00,WSW,245,5.0,18.0,53,-99.99,,,-99.99,,2013-05-16 00:19:00,
2013-05-15 20:27:00,69.0,51.0,-100.00,WSW,245,5.0,18.0,53,-99.99,,,-99.99,,2013-05-16 00:27:00,
2013-05-15 20:29:00,66.0,51.0,-100.00,WSW,245,1.0,9.0,60,-99.99,,,-99.99,,2013-05-16 00:29:00,
2013-05-15 20:37:00,68.0,51.0,-100.00,West,265,4.0,9.0,55,-99.99,,,-99.99,,2013-05-16 00:37:00,
2013-05-15 20:51:00,67.0,51.0,-100.00,WSW,250,6.0,11.0,57,-99.99,,,-99.99,,2013-05-16 00:51:00,
2013-05-15 21:19:00,66.0,51.0,-100.00,WSW,245,1.0,9.0,60,-99.99,,,-99.99,,2013-05-16 01:19:00,
2013-05-15 21:44:00,63.0,52.0,-100.00,North,0,1.0,6.0,67,-99.99,,,-99.99,,2013-05-16 01:44:00,
2013-05-15 21:49:00,65.0,52.0,-100.00,SW,235,1.0,7.0,63,-99.99,,,-99.99,,2013-05-16 01:49:00,
2013-05-15 21:56:00,65.0,52.0,-100.00,SW,235,1.0,7.0,63,-99.99,,,-99.99,,2013-05-16 01:56:00,
2013-05-15 22:08:00,64.0,52.0,-100.00,WSW,240,2.0,7.0,64,-99.99,,,-99.99,,2013-05-16 02:08:00,
2013-05-15 22:18:00,64.0,52.0,-100.00,North,5,2.0,6.0,65,-99.99,,,-99.99,,2013-05-16 02:18:00,
2013-05-15 22:28:00,64.0,52.0,-100.00,North,5,2.0,6.0,65,-99.99,,,-99.99,,2013-05-16 02:28:00,
2013-05-15 23:17:00,64.0,53.0,-100.00,WSW,250,4.0,9.0,68,-99.99,,,-99.99,,2013-05-16 03:17:00,
2013-05-15 23:27:00,64.0,53.0,-100.00,WSW,250,4.0,9.0,68,-99.99,,,-99.99,,2013-05-16 03:27:00,
2013-05-15 23:39:00,63.0,53.0,-100.00,WNW,295,1.0,5.0,68,-99.99,,,-99.99,,2013-05-16 03:39:00,
2013-05-15 23:46:00,63.0,53.0,-100.00,WSW,240,1.0,6.0,70,-99.99,,,-99.99,,2013-05-16 03:46:00,
2013-05-15 23:56:00,63.0,53.0,-100.00,WSW,240,1.0,6.0,70,-99.99,,,-99.99,,2013-05-16 03:56:00,